sensor_id;sensor_type;location;lat;lon;timestamp;pressure;altitude;pressure_sealevel;temperature;humidity
48636;BME280;34429;52.332;5.614;2023-02-20T00:00:05;102430.66;;;5.59;100.00
48636;BME280;34429;52.332;5.614;2023-02-20T00:02:34;102422.44;;;5.64;100.00
48636;BME280;34429;52.332;5.614;2023-02-20T00:05:05;102423.31;;;5.65;100.00
48636;BME280;34429;52.332;5.614;2023-02-20T00:07:36;102415.69;;;5.55;100.00
48636;BME280;34429;52.332;5.614;2023-02-20T00:10:06;102401.31;;;5.58;100.00
48636;BME280;34429;52.332;5.614;2023-02-20T00:12:34;102404.81;;;5.60;100.00
48636;BME280;34429;52.332;5.614;2023-02-20T00:15:03;102398.59;;;5.59;100.00
48636;BME280;34429;52.332;5.614;2023-02-20T00:17:32;102390.31;;;5.66;100.00
48636;BME280;34429;52.332;5.614;2023-02-20T00:20:01;102393.66;;;5.71;100.00
48636;BME280;34429;52.332;5.614;2023-02-20T00:22:29;102393.31;;;5.78;100.00
48636;BME280;34429;52.332;5.614;2023-02-20T00:25:00;102390.38;;;5.85;100.00
48636;BME280;34429;52.332;5.614;2023-02-20T00:27:28;102385.63;;;5.91;100.00
48636;BME280;34429;52.332;5.614;2023-02-20T00:29:57;102375.69;;;5.95;100.00
48636;BME280;34429;52.332;5.614;2023-02-20T00:32:25;102358.66;;;5.97;100.00
48636;BME280;34429;52.332;5.614;2023-02-20T00:34:54;102372.53;;;6.06;100.00
48636;BME280;34429;52.332;5.614;2023-02-20T00:37:23;102378.44;;;6.14;100.00
48636;BME280;34429;52.332;5.614;2023-02-20T00:39:52;102378.22;;;6.19;100.00
48636;BME280;34429;52.332;5.614;2023-02-20T00:42:23;102366.00;;;6.13;100.00
48636;BME280;34429;52.332;5.614;2023-02-20T00:44:51;102366.22;;;6.27;100.00
48636;BME280;34429;52.332;5.614;2023-02-20T00:47:19;102357.69;;;6.19;100.00
48636;BME280;34429;52.332;5.614;2023-02-20T00:49:48;102356.38;;;6.09;100.00
48636;BME280;34429;52.332;5.614;2023-02-20T00:52:16;102364.91;;;6.17;100.00
48636;BME280;34429;52.332;5.614;2023-02-20T00:54:47;102355.38;;;6.11;100.00
48636;BME280;34429;52.332;5.614;2023-02-20T00:57:15;102345.53;;;6.12;100.00
48636;BME280;34429;52.332;5.614;2023-02-20T00:59:46;102329.06;;;6.21;100.00
48636;BME280;34429;52.332;5.614;2023-02-20T01:02:16;102329.34;;;6.15;100.00
48636;BME280;34429;52.332;5.614;2023-02-20T01:04:44;102330.88;;;6.21;100.00
48636;BME280;34429;52.332;5.614;2023-02-20T01:07:12;102316.78;;;6.17;100.00
48636;BME280;34429;52.332;5.614;2023-02-20T01:09:41;102308.19;;;6.10;100.00
48636;BME280;34429;52.332;5.614;2023-02-20T01:12:09;102308.09;;;6.12;100.00
48636;BME280;34429;52.332;5.614;2023-02-20T01:14:37;102288.97;;;6.02;100.00
48636;BME280;34429;52.332;5.614;2023-02-20T01:17:08;102284.41;;;6.04;100.00
48636;BME280;34429;52.332;5.614;2023-02-20T01:19:37;102287.00;;;6.06;100.00
48636;BME280;34429;52.332;5.614;2023-02-20T01:22:06;102274.97;;;5.95;100.00
48636;BME280;34429;52.332;5.614;2023-02-20T01:24:35;102282.13;;;6.16;100.00
48636;BME280;34429;52.332;5.614;2023-02-20T01:27:03;102281.00;;;6.01;100.00
48636;BME280;34429;52.332;5.614;2023-02-20T01:29:32;102285.81;;;5.92;100.00
48636;BME280;34429;52.332;5.614;2023-02-20T01:32:00;102277.53;;;5.99;100.00
48636;BME280;34429;52.332;5.614;2023-02-20T01:34:31;102280.97;;;6.02;100.00
48636;BME280;34429;52.332;5.614;2023-02-20T01:36:59;102276.47;;;6.03;100.00
48636;BME280;34429;52.332;5.614;2023-02-20T01:39:28;102288.31;;;5.97;100.00
48636;BME280;34429;52.332;5.614;2023-02-20T01:41:57;102293.91;;;5.91;100.00
48636;BME280;34429;52.332;5.614;2023-02-20T01:44:28;102291.03;;;5.95;100.00
48636;BME280;34429;52.332;5.614;2023-02-20T01:46:57;102290.63;;;6.05;100.00
48636;BME280;34429;52.332;5.614;2023-02-20T01:49:33;102282.97;;;5.97;100.00
48636;BME280;34429;52.332;5.614;2023-02-20T01:52:07;102281.25;;;5.94;100.00
48636;BME280;34429;52.332;5.614;2023-02-20T01:54:38;102269.22;;;6.05;100.00
48636;BME280;34429;52.332;5.614;2023-02-20T01:57:13;102274.88;;;5.99;100.00
48636;BME280;34429;52.332;5.614;2023-02-20T01:59:44;102265.94;;;6.00;100.00
48636;BME280;34429;52.332;5.614;2023-02-20T02:02:14;102251.47;;;6.04;100.00
48636;BME280;34429;52.332;5.614;2023-02-20T02:04:48;102244.25;;;6.06;100.00
48636;BME280;34429;52.332;5.614;2023-02-20T02:07:18;102246.00;;;6.07;100.00
48636;BME280;34429;52.332;5.614;2023-02-20T02:09:50;102237.47;;;5.99;100.00
48636;BME280;34429;52.332;5.614;2023-02-20T02:12:20;102230.66;;;6.10;100.00
48636;BME280;34429;52.332;5.614;2023-02-20T02:14:49;102226.63;;;6.02;100.00
48636;BME280;34429;52.332;5.614;2023-02-20T02:17:50;102236.00;;;6.10;100.00
48636;BME280;34429;52.332;5.614;2023-02-20T02:20:54;102236.81;;;6.12;100.00
48636;BME280;34429;52.332;5.614;2023-02-20T02:26:48;102225.97;;;6.16;100.00
48636;BME280;34429;52.332;5.614;2023-02-20T02:32:34;102225.47;;;6.07;100.00
48636;BME280;34429;52.332;5.614;2023-02-20T02:38:25;102234.25;;;6.28;100.00
48636;BME280;34429;52.332;5.614;2023-02-20T02:41:02;102224.22;;;6.34;100.00
48636;BME280;34429;52.332;5.614;2023-02-20T02:43:39;102218.56;;;6.40;100.00
48636;BME280;34429;52.332;5.614;2023-02-20T02:46:15;102219.47;;;6.39;100.00
48636;BME280;34429;52.332;5.614;2023-02-20T02:48:51;102226.41;;;6.43;100.00
48636;BME280;34429;52.332;5.614;2023-02-20T02:51:24;102211.19;;;6.45;100.00
48636;BME280;34429;52.332;5.614;2023-02-20T02:54:07;102215.25;;;6.52;100.00
48636;BME280;34429;52.332;5.614;2023-02-20T02:56:37;102210.47;;;6.59;100.00
48636;BME280;34429;52.332;5.614;2023-02-20T02:59:08;102203.16;;;6.62;100.00
48636;BME280;34429;52.332;5.614;2023-02-20T03:01:41;102192.25;;;6.67;100.00
48636;BME280;34429;52.332;5.614;2023-02-20T03:04:12;102191.75;;;6.59;100.00
48636;BME280;34429;52.332;5.614;2023-02-20T03:06:50;102186.00;;;6.66;100.00
48636;BME280;34429;52.332;5.614;2023-02-20T03:09:25;102190.91;;;6.58;100.00
48636;BME280;34429;52.332;5.614;2023-02-20T03:11:55;102191.38;;;6.66;100.00
48636;BME280;34429;52.332;5.614;2023-02-20T03:14:30;102193.25;;;6.64;100.00
48636;BME280;34429;52.332;5.614;2023-02-20T03:17:19;102189.19;;;6.75;100.00
48636;BME280;34429;52.332;5.614;2023-02-20T03:19:56;102184.28;;;6.83;100.00
48636;BME280;34429;52.332;5.614;2023-02-20T03:22:28;102188.44;;;6.89;100.00
48636;BME280;34429;52.332;5.614;2023-02-20T03:25:03;102187.09;;;6.97;100.00
48636;BME280;34429;52.332;5.614;2023-02-20T03:27:35;102178.28;;;7.13;100.00
48636;BME280;34429;52.332;5.614;2023-02-20T03:30:08;102179.88;;;7.17;100.00
48636;BME280;34429;52.332;5.614;2023-02-20T03:32:39;102175.19;;;7.21;100.00
48636;BME280;34429;52.332;5.614;2023-02-20T03:35:23;102178.66;;;7.23;100.00
48636;BME280;34429;52.332;5.614;2023-02-20T03:38:06;102164.16;;;7.27;100.00
48636;BME280;34429;52.332;5.614;2023-02-20T03:40:51;102176.78;;;7.25;100.00
48636;BME280;34429;52.332;5.614;2023-02-20T03:43:34;102182.91;;;7.27;100.00
48636;BME280;34429;52.332;5.614;2023-02-20T03:46:07;102168.81;;;7.23;100.00
48636;BME280;34429;52.332;5.614;2023-02-20T03:48:41;102165.47;;;7.35;100.00
48636;BME280;34429;52.332;5.614;2023-02-20T03:51:11;102157.44;;;7.35;100.00
48636;BME280;34429;52.332;5.614;2023-02-20T03:53:40;102169.00;;;7.36;100.00
48636;BME280;34429;52.332;5.614;2023-02-20T03:56:15;102163.66;;;7.36;100.00
48636;BME280;34429;52.332;5.614;2023-02-20T03:58:47;102162.88;;;7.34;100.00
48636;BME280;34429;52.332;5.614;2023-02-20T04:01:19;102156.41;;;7.38;100.00
48636;BME280;34429;52.332;5.614;2023-02-20T04:03:49;102147.09;;;7.45;100.00
48636;BME280;34429;52.332;5.614;2023-02-20T04:06:22;102144.31;;;7.47;100.00
48636;BME280;34429;52.332;5.614;2023-02-20T04:08:57;102142.75;;;7.43;100.00
48636;BME280;34429;52.332;5.614;2023-02-20T04:11:35;102145.25;;;7.46;100.00
48636;BME280;34429;52.332;5.614;2023-02-20T04:14:05;102144.16;;;7.50;100.00
48636;BME280;34429;52.332;5.614;2023-02-20T04:16:38;102137.22;;;7.46;100.00
48636;BME280;34429;52.332;5.614;2023-02-20T04:19:09;102140.38;;;7.54;100.00
48636;BME280;34429;52.332;5.614;2023-02-20T04:21:40;102140.53;;;7.51;100.00
48636;BME280;34429;52.332;5.614;2023-02-20T04:24:13;102136.03;;;7.51;100.00
48636;BME280;34429;52.332;5.614;2023-02-20T04:26:45;102132.50;;;7.51;100.00
48636;BME280;34429;52.332;5.614;2023-02-20T04:29:14;102124.19;;;7.56;100.00
48636;BME280;34429;52.332;5.614;2023-02-20T04:31:42;102124.19;;;7.56;100.00
48636;BME280;34429;52.332;5.614;2023-02-20T04:34:11;102125.69;;;7.61;100.00
48636;BME280;34429;52.332;5.614;2023-02-20T04:36:39;102114.78;;;7.64;100.00
48636;BME280;34429;52.332;5.614;2023-02-20T04:39:07;102137.84;;;7.67;100.00
48636;BME280;34429;52.332;5.614;2023-02-20T04:41:36;102124.72;;;7.62;100.00
48636;BME280;34429;52.332;5.614;2023-02-20T04:44:07;102127.38;;;7.62;100.00
48636;BME280;34429;52.332;5.614;2023-02-20T04:46:47;102119.88;;;7.69;100.00
48636;BME280;34429;52.332;5.614;2023-02-20T04:49:16;102128.00;;;7.67;100.00
48636;BME280;34429;52.332;5.614;2023-02-20T04:51:44;102125.56;;;7.79;100.00
48636;BME280;34429;52.332;5.614;2023-02-20T04:54:12;102122.56;;;7.85;100.00
48636;BME280;34429;52.332;5.614;2023-02-20T04:56:41;102133.56;;;7.80;100.00
48636;BME280;34429;52.332;5.614;2023-02-20T04:59:12;102115.47;;;7.84;100.00
48636;BME280;34429;52.332;5.614;2023-02-20T05:01:40;102125.34;;;7.83;100.00
48636;BME280;34429;52.332;5.614;2023-02-20T05:04:12;102131.38;;;7.87;100.00
48636;BME280;34429;52.332;5.614;2023-02-20T05:06:43;102128.97;;;7.82;100.00
48636;BME280;34429;52.332;5.614;2023-02-20T05:09:11;102126.00;;;7.87;100.00
48636;BME280;34429;52.332;5.614;2023-02-20T05:11:40;102126.78;;;7.89;100.00
48636;BME280;34429;52.332;5.614;2023-02-20T05:14:08;102116.22;;;8.02;100.00
48636;BME280;34429;52.332;5.614;2023-02-20T05:16:40;102117.63;;;7.93;100.00
48636;BME280;34429;52.332;5.614;2023-02-20T05:19:13;102103.19;;;7.96;100.00
48636;BME280;34429;52.332;5.614;2023-02-20T05:21:41;102111.75;;;8.02;100.00
48636;BME280;34429;52.332;5.614;2023-02-20T05:24:22;102097.13;;;7.92;100.00
48636;BME280;34429;52.332;5.614;2023-02-20T05:26:59;102106.13;;;7.91;100.00
48636;BME280;34429;52.332;5.614;2023-02-20T05:29:28;102103.94;;;7.98;100.00
48636;BME280;34429;52.332;5.614;2023-02-20T05:31:58;102114.25;;;8.05;100.00
48636;BME280;34429;52.332;5.614;2023-02-20T05:34:27;102102.31;;;7.95;100.00
48636;BME280;34429;52.332;5.614;2023-02-20T05:36:55;102117.34;;;7.98;100.00
48636;BME280;34429;52.332;5.614;2023-02-20T05:39:24;102117.50;;;8.11;100.00
48636;BME280;34429;52.332;5.614;2023-02-20T05:41:52;102131.38;;;8.03;100.00
48636;BME280;34429;52.332;5.614;2023-02-20T05:44:21;102126.84;;;8.03;100.00
48636;BME280;34429;52.332;5.614;2023-02-20T05:46:49;102118.63;;;8.06;100.00
48636;BME280;34429;52.332;5.614;2023-02-20T05:49:21;102127.75;;;8.04;100.00
48636;BME280;34429;52.332;5.614;2023-02-20T05:51:50;102126.50;;;8.10;100.00
48636;BME280;34429;52.332;5.614;2023-02-20T05:54:18;102121.75;;;8.15;100.00
48636;BME280;34429;52.332;5.614;2023-02-20T05:56:47;102125.38;;;8.14;100.00
48636;BME280;34429;52.332;5.614;2023-02-20T05:59:19;102124.50;;;8.13;100.00
48636;BME280;34429;52.332;5.614;2023-02-20T06:01:48;102113.16;;;8.24;100.00
48636;BME280;34429;52.332;5.614;2023-02-20T06:04:29;102108.06;;;8.19;100.00
48636;BME280;34429;52.332;5.614;2023-02-20T06:06:58;102119.06;;;8.15;100.00
48636;BME280;34429;52.332;5.614;2023-02-20T06:09:26;102115.97;;;8.37;100.00
48636;BME280;34429;52.332;5.614;2023-02-20T06:11:55;102113.56;;;8.32;100.00
48636;BME280;34429;52.332;5.614;2023-02-20T06:14:25;102110.81;;;8.34;100.00
48636;BME280;34429;52.332;5.614;2023-02-20T06:16:55;102102.34;;;8.25;100.00
48636;BME280;34429;52.332;5.614;2023-02-20T06:19:26;102103.13;;;8.28;100.00
48636;BME280;34429;52.332;5.614;2023-02-20T06:21:54;102097.28;;;8.35;100.00
48636;BME280;34429;52.332;5.614;2023-02-20T06:24:23;102089.50;;;8.47;100.00
48636;BME280;34429;52.332;5.614;2023-02-20T06:26:52;102089.81;;;8.40;100.00
48636;BME280;34429;52.332;5.614;2023-02-20T06:29:20;102081.19;;;8.35;100.00
48636;BME280;34429;52.332;5.614;2023-02-20T06:31:49;102086.47;;;8.37;100.00
48636;BME280;34429;52.332;5.614;2023-02-20T06:34:17;102079.72;;;8.46;100.00
48636;BME280;34429;52.332;5.614;2023-02-20T06:36:50;102074.19;;;8.49;100.00
48636;BME280;34429;52.332;5.614;2023-02-20T06:39:18;102074.47;;;8.44;100.00
48636;BME280;34429;52.332;5.614;2023-02-20T06:41:47;102085.66;;;8.51;100.00
48636;BME280;34429;52.332;5.614;2023-02-20T06:44:15;102081.28;;;8.50;100.00
48636;BME280;34429;52.332;5.614;2023-02-20T06:46:43;102095.44;;;8.52;100.00
48636;BME280;34429;52.332;5.614;2023-02-20T06:49:12;102095.03;;;8.44;100.00
48636;BME280;34429;52.332;5.614;2023-02-20T06:51:40;102099.59;;;8.41;100.00
48636;BME280;34429;52.332;5.614;2023-02-20T06:54:12;102098.50;;;8.46;100.00
48636;BME280;34429;52.332;5.614;2023-02-20T06:56:40;102100.16;;;8.32;100.00
48636;BME280;34429;52.332;5.614;2023-02-20T06:59:09;102104.63;;;8.48;100.00
48636;BME280;34429;52.332;5.614;2023-02-20T07:01:39;102104.88;;;8.59;100.00
48636;BME280;34429;52.332;5.614;2023-02-20T07:04:14;102097.66;;;8.59;100.00
48636;BME280;34429;52.332;5.614;2023-02-20T07:06:43;102096.69;;;8.46;100.00
48636;BME280;34429;52.332;5.614;2023-02-20T07:09:14;102098.66;;;8.58;100.00
48636;BME280;34429;52.332;5.614;2023-02-20T07:11:44;102102.28;;;8.57;100.00
48636;BME280;34429;52.332;5.614;2023-02-20T07:14:15;102105.06;;;8.56;100.00
48636;BME280;34429;52.332;5.614;2023-02-20T07:16:43;102114.25;;;8.52;100.00
48636;BME280;34429;52.332;5.614;2023-02-20T07:19:11;102105.44;;;8.50;100.00
48636;BME280;34429;52.332;5.614;2023-02-20T07:21:40;102116.25;;;8.48;100.00
48636;BME280;34429;52.332;5.614;2023-02-20T07:24:08;102132.16;;;8.51;100.00
48636;BME280;34429;52.332;5.614;2023-02-20T07:26:39;102116.06;;;8.51;100.00
48636;BME280;34429;52.332;5.614;2023-02-20T07:29:07;102127.09;;;8.61;100.00
48636;BME280;34429;52.332;5.614;2023-02-20T07:31:36;102125.09;;;8.65;100.00
48636;BME280;34429;52.332;5.614;2023-02-20T07:34:04;102136.66;;;8.51;100.00
48636;BME280;34429;52.332;5.614;2023-02-20T07:36:32;102125.75;;;8.54;100.00
48636;BME280;34429;52.332;5.614;2023-02-20T07:39:02;102126.16;;;8.62;100.00
48636;BME280;34429;52.332;5.614;2023-02-20T07:41:31;102119.84;;;8.63;100.00
48636;BME280;34429;52.332;5.614;2023-02-20T07:44:03;102133.53;;;8.58;100.00
48636;BME280;34429;52.332;5.614;2023-02-20T07:46:32;102126.56;;;8.70;100.00
48636;BME280;34429;52.332;5.614;2023-02-20T07:49:01;102136.13;;;8.60;100.00
48636;BME280;34429;52.332;5.614;2023-02-20T07:51:30;102139.00;;;8.71;100.00
48636;BME280;34429;52.332;5.614;2023-02-20T07:53:58;102142.56;;;8.72;100.00
48636;BME280;34429;52.332;5.614;2023-02-20T07:56:27;102133.19;;;8.79;100.00
48636;BME280;34429;52.332;5.614;2023-02-20T07:58:55;102134.81;;;8.82;100.00
48636;BME280;34429;52.332;5.614;2023-02-20T08:01:26;102129.63;;;8.79;100.00
48636;BME280;34429;52.332;5.614;2023-02-20T08:03:54;102114.50;;;8.77;100.00
48636;BME280;34429;52.332;5.614;2023-02-20T08:06:23;102106.59;;;8.74;100.00
48636;BME280;34429;52.332;5.614;2023-02-20T08:08:53;102112.75;;;8.76;100.00
48636;BME280;34429;52.332;5.614;2023-02-20T08:11:22;102108.56;;;8.87;100.00
48636;BME280;34429;52.332;5.614;2023-02-20T08:13:50;102109.31;;;8.89;100.00
48636;BME280;34429;52.332;5.614;2023-02-20T08:16:20;102106.53;;;8.90;100.00
48636;BME280;34429;52.332;5.614;2023-02-20T08:18:52;102105.00;;;9.01;100.00
48636;BME280;34429;52.332;5.614;2023-02-20T08:21:20;102107.34;;;9.07;100.00
48636;BME280;34429;52.332;5.614;2023-02-20T08:23:49;102099.34;;;9.05;100.00
48636;BME280;34429;52.332;5.614;2023-02-20T08:26:17;102108.00;;;9.10;100.00
48636;BME280;34429;52.332;5.614;2023-02-20T08:28:46;102096.19;;;9.13;100.00
48636;BME280;34429;52.332;5.614;2023-02-20T08:31:14;102094.28;;;9.15;100.00
48636;BME280;34429;52.332;5.614;2023-02-20T08:33:43;102090.84;;;9.13;100.00
48636;BME280;34429;52.332;5.614;2023-02-20T08:36:14;102081.31;;;9.07;100.00
48636;BME280;34429;52.332;5.614;2023-02-20T08:38:43;102091.88;;;9.10;100.00
48636;BME280;34429;52.332;5.614;2023-02-20T08:41:12;102091.78;;;8.98;100.00
48636;BME280;34429;52.332;5.614;2023-02-20T08:43:42;102083.53;;;9.01;100.00
48636;BME280;34429;52.332;5.614;2023-02-20T08:46:11;102087.09;;;9.01;100.00
48636;BME280;34429;52.332;5.614;2023-02-20T08:48:40;102092.63;;;9.12;100.00
48636;BME280;34429;52.332;5.614;2023-02-20T08:51:08;102087.56;;;9.08;100.00
48636;BME280;34429;52.332;5.614;2023-02-20T08:53:39;102091.78;;;9.12;100.00
48636;BME280;34429;52.332;5.614;2023-02-20T08:56:08;102095.81;;;9.05;100.00
48636;BME280;34429;52.332;5.614;2023-02-20T08:58:37;102110.66;;;8.96;100.00
48636;BME280;34429;52.332;5.614;2023-02-20T09:01:06;102112.78;;;9.20;100.00
48636;BME280;34429;52.332;5.614;2023-02-20T09:03:34;102110.00;;;9.21;100.00
48636;BME280;34429;52.332;5.614;2023-02-20T09:06:06;102112.00;;;9.03;100.00
48636;BME280;34429;52.332;5.614;2023-02-20T09:08:35;102104.44;;;9.10;100.00
48636;BME280;34429;52.332;5.614;2023-02-20T09:11:06;102095.50;;;9.09;100.00
48636;BME280;34429;52.332;5.614;2023-02-20T09:13:40;102106.44;;;9.06;100.00
48636;BME280;34429;52.332;5.614;2023-02-20T09:16:09;102113.16;;;9.14;100.00
48636;BME280;34429;52.332;5.614;2023-02-20T09:18:37;102101.19;;;9.19;100.00
48636;BME280;34429;52.332;5.614;2023-02-20T09:21:07;102104.06;;;9.16;100.00
48636;BME280;34429;52.332;5.614;2023-02-20T09:23:36;102101.47;;;9.15;100.00
48636;BME280;34429;52.332;5.614;2023-02-20T09:26:07;102105.88;;;9.16;100.00
48636;BME280;34429;52.332;5.614;2023-02-20T09:28:36;102101.06;;;9.06;100.00
48636;BME280;34429;52.332;5.614;2023-02-20T09:31:05;102096.00;;;9.02;100.00
48636;BME280;34429;52.332;5.614;2023-02-20T09:33:33;102078.53;;;9.09;100.00
48636;BME280;34429;52.332;5.614;2023-02-20T09:36:02;102097.25;;;9.25;100.00
48636;BME280;34429;52.332;5.614;2023-02-20T09:38:30;102115.84;;;9.28;100.00
48636;BME280;34429;52.332;5.614;2023-02-20T09:40:59;102112.59;;;9.23;100.00
48636;BME280;34429;52.332;5.614;2023-02-20T09:44:00;102123.91;;;9.28;100.00
48636;BME280;34429;52.332;5.614;2023-02-20T09:46:36;102112.13;;;9.16;100.00
48636;BME280;34429;52.332;5.614;2023-02-20T09:49:11;102119.69;;;9.24;100.00
48636;BME280;34429;52.332;5.614;2023-02-20T09:51:43;102126.81;;;9.25;100.00
48636;BME280;34429;52.332;5.614;2023-02-20T09:54:15;102127.00;;;9.22;100.00
48636;BME280;34429;52.332;5.614;2023-02-20T09:56:48;102126.91;;;9.23;100.00
48636;BME280;34429;52.332;5.614;2023-02-20T09:59:23;102116.63;;;9.30;100.00
48636;BME280;34429;52.332;5.614;2023-02-20T10:01:54;102110.88;;;9.22;100.00
48636;BME280;34429;52.332;5.614;2023-02-20T10:04:29;102101.38;;;9.16;100.00
48636;BME280;34429;52.332;5.614;2023-02-20T10:07:03;102113.47;;;9.23;100.00
48636;BME280;34429;52.332;5.614;2023-02-20T10:09:36;102091.28;;;9.20;100.00
48636;BME280;34429;52.332;5.614;2023-02-20T10:12:11;102089.00;;;9.28;100.00
48636;BME280;34429;52.332;5.614;2023-02-20T10:14:54;102079.97;;;9.29;100.00
48636;BME280;34429;52.332;5.614;2023-02-20T10:17:35;102095.50;;;9.38;100.00
48636;BME280;34429;52.332;5.614;2023-02-20T10:20:11;102085.81;;;9.36;100.00
48636;BME280;34429;52.332;5.614;2023-02-20T10:22:48;102080.72;;;9.31;100.00
48636;BME280;34429;52.332;5.614;2023-02-20T10:25:24;102099.53;;;9.45;100.00
48636;BME280;34429;52.332;5.614;2023-02-20T10:27:59;102093.06;;;9.48;100.00
48636;BME280;34429;52.332;5.614;2023-02-20T10:30:35;102073.59;;;9.44;100.00
48636;BME280;34429;52.332;5.614;2023-02-20T10:33:15;102077.84;;;9.34;100.00
48636;BME280;34429;52.332;5.614;2023-02-20T10:35:54;102079.19;;;9.41;100.00
48636;BME280;34429;52.332;5.614;2023-02-20T10:38:26;102084.56;;;9.41;100.00
48636;BME280;34429;52.332;5.614;2023-02-20T10:41:01;102069.97;;;9.45;100.00
48636;BME280;34429;52.332;5.614;2023-02-20T10:43:37;102069.38;;;9.55;100.00
48636;BME280;34429;52.332;5.614;2023-02-20T10:46:14;102071.09;;;9.56;100.00
48636;BME280;34429;52.332;5.614;2023-02-20T10:48:46;102070.28;;;9.68;100.00
48636;BME280;34429;52.332;5.614;2023-02-20T10:51:17;102077.44;;;9.55;100.00
48636;BME280;34429;52.332;5.614;2023-02-20T10:53:54;102072.06;;;9.55;100.00
48636;BME280;34429;52.332;5.614;2023-02-20T10:56:31;102070.41;;;9.52;100.00
48636;BME280;34429;52.332;5.614;2023-02-20T10:59:04;102082.81;;;9.55;100.00
48636;BME280;34429;52.332;5.614;2023-02-20T11:01:37;102091.78;;;9.68;100.00
48636;BME280;34429;52.332;5.614;2023-02-20T11:04:10;102100.03;;;9.79;100.00
48636;BME280;34429;52.332;5.614;2023-02-20T11:06:43;102086.78;;;9.76;100.00
48636;BME280;34429;52.332;5.614;2023-02-20T11:09:12;102104.41;;;9.53;100.00
48636;BME280;34429;52.332;5.614;2023-02-20T11:11:42;102113.13;;;9.57;100.00
48636;BME280;34429;52.332;5.614;2023-02-20T11:14:13;102112.84;;;9.61;100.00
48636;BME280;34429;52.332;5.614;2023-02-20T11:16:51;102128.19;;;9.74;100.00
48636;BME280;34429;52.332;5.614;2023-02-20T11:19:22;102121.38;;;9.68;100.00
48636;BME280;34429;52.332;5.614;2023-02-20T11:21:53;102128.97;;;9.61;100.00
48636;BME280;34429;52.332;5.614;2023-02-20T11:24:28;102125.72;;;9.56;100.00
48636;BME280;34429;52.332;5.614;2023-02-20T11:27:01;102116.38;;;9.76;100.00
48636;BME280;34429;52.332;5.614;2023-02-20T11:29:39;102122.41;;;9.80;100.00
48636;BME280;34429;52.332;5.614;2023-02-20T11:32:38;102139.56;;;9.77;100.00
48636;BME280;34429;52.332;5.614;2023-02-20T11:38:16;102103.69;;;9.78;100.00
48636;BME280;34429;52.332;5.614;2023-02-20T11:40:58;102095.00;;;9.60;100.00
48636;BME280;34429;52.332;5.614;2023-02-20T11:43:29;102099.09;;;9.66;100.00
48636;BME280;34429;52.332;5.614;2023-02-20T11:46:07;102100.47;;;9.59;100.00
48636;BME280;34429;52.332;5.614;2023-02-20T11:48:57;102099.31;;;9.63;100.00
48636;BME280;34429;52.332;5.614;2023-02-20T11:51:34;102081.44;;;9.62;100.00
48636;BME280;34429;52.332;5.614;2023-02-20T11:54:13;102080.28;;;9.66;100.00
48636;BME280;34429;52.332;5.614;2023-02-20T11:56:57;102072.31;;;9.64;100.00
48636;BME280;34429;52.332;5.614;2023-02-20T11:59:30;102100.44;;;9.73;100.00
48636;BME280;34429;52.332;5.614;2023-02-20T12:02:20;102105.41;;;9.79;100.00
48636;BME280;34429;52.332;5.614;2023-02-20T12:05:06;102104.16;;;9.85;100.00
48636;BME280;34429;52.332;5.614;2023-02-20T12:07:43;102096.75;;;9.74;100.00
48636;BME280;34429;52.332;5.614;2023-02-20T12:10:26;102083.28;;;9.89;100.00
48636;BME280;34429;52.332;5.614;2023-02-20T12:12:56;102088.22;;;9.82;100.00
48636;BME280;34429;52.332;5.614;2023-02-20T12:15:26;102074.88;;;9.80;100.00
48636;BME280;34429;52.332;5.614;2023-02-20T12:21:22;102083.97;;;9.92;100.00
48636;BME280;34429;52.332;5.614;2023-02-20T12:24:05;102079.56;;;9.77;100.00
48636;BME280;34429;52.332;5.614;2023-02-20T12:26:51;102089.28;;;9.79;100.00
48636;BME280;34429;52.332;5.614;2023-02-20T12:29:35;102088.75;;;9.87;100.00
48636;BME280;34429;52.332;5.614;2023-02-20T12:32:16;102084.34;;;9.86;100.00
48636;BME280;34429;52.332;5.614;2023-02-20T12:35:03;102076.63;;;9.67;100.00
48636;BME280;34429;52.332;5.614;2023-02-20T12:37:49;102075.34;;;9.73;100.00
48636;BME280;34429;52.332;5.614;2023-02-20T12:40:37;102082.31;;;9.90;100.00
48636;BME280;34429;52.332;5.614;2023-02-20T12:43:17;102080.50;;;9.90;100.00
48636;BME280;34429;52.332;5.614;2023-02-20T12:45:54;102089.63;;;9.88;100.00
48636;BME280;34429;52.332;5.614;2023-02-20T12:48:32;102080.69;;;9.87;100.00
48636;BME280;34429;52.332;5.614;2023-02-20T12:51:11;102084.72;;;9.94;100.00
48636;BME280;34429;52.332;5.614;2023-02-20T12:53:51;102062.50;;;9.91;100.00
48636;BME280;34429;52.332;5.614;2023-02-20T12:56:28;102057.50;;;9.99;100.00
48636;BME280;34429;52.332;5.614;2023-02-20T12:59:06;102049.75;;;9.94;100.00
48636;BME280;34429;52.332;5.614;2023-02-20T13:01:36;102038.13;;;9.94;100.00
48636;BME280;34429;52.332;5.614;2023-02-20T13:04:15;102036.34;;;10.20;100.00
48636;BME280;34429;52.332;5.614;2023-02-20T13:06:51;102027.00;;;10.26;100.00
48636;BME280;34429;52.332;5.614;2023-02-20T13:09:27;102039.34;;;10.43;100.00
48636;BME280;34429;52.332;5.614;2023-02-20T13:12:01;102040.97;;;10.45;100.00
48636;BME280;34429;52.332;5.614;2023-02-20T13:14:40;102056.13;;;10.33;100.00
48636;BME280;34429;52.332;5.614;2023-02-20T13:17:20;102048.38;;;10.42;100.00
48636;BME280;34429;52.332;5.614;2023-02-20T13:19:56;102037.66;;;10.27;100.00
48636;BME280;34429;52.332;5.614;2023-02-20T13:22:28;102039.06;;;10.33;100.00
48636;BME280;34429;52.332;5.614;2023-02-20T13:28:05;102009.41;;;10.47;100.00
48636;BME280;34429;52.332;5.614;2023-02-20T13:30:41;102021.69;;;10.51;100.00
48636;BME280;34429;52.332;5.614;2023-02-20T13:33:11;102008.97;;;10.54;100.00
48636;BME280;34429;52.332;5.614;2023-02-20T13:35:49;102012.19;;;10.46;100.00